sensor_id;sensor_type;location;lat;lon;timestamp;P1;durP1;ratioP1;P2;durP2;ratioP2
6862;SDS011;3470;48.738;9.616;2024-03-29T00:01:03;3.33;;;1.40;;
6862;SDS011;3470;48.738;9.616;2024-03-29T00:03:28;1.30;;;1.20;;
6862;SDS011;3470;48.738;9.616;2024-03-29T00:05:54;2.63;;;1.50;;
6862;SDS011;3470;48.738;9.616;2024-03-29T00:08:19;1.50;;;1.23;;
6862;SDS011;3470;48.738;9.616;2024-03-29T00:10:48;2.50;;;1.27;;
6862;SDS011;3470;48.738;9.616;2024-03-29T00:13:13;1.33;;;1.20;;
6862;SDS011;3470;48.738;9.616;2024-03-29T00:15:39;1.27;;;1.03;;
6862;SDS011;3470;48.738;9.616;2024-03-29T19:02:38;6.07;;;2.10;;
6862;SDS011;3470;48.738;9.616;2024-03-29T19:05:04;3.23;;;2.03;;
6862;SDS011;3470;48.738;9.616;2024-03-29T19:07:29;2.53;;;2.20;;
6862;SDS011;3470;48.738;9.616;2024-03-29T19:09:55;2.10;;;1.90;;
6862;SDS011;3470;48.738;9.616;2024-03-29T19:12:21;3.13;;;2.30;;
6862;SDS011;3470;48.738;9.616;2024-03-29T19:14:47;3.37;;;1.93;;
6862;SDS011;3470;48.738;9.616;2024-03-29T19:17:13;2.80;;;2.20;;
6862;SDS011;3470;48.738;9.616;2024-03-29T19:19:39;2.80;;;2.33;;
6862;SDS011;3470;48.738;9.616;2024-03-29T19:22:05;4.00;;;2.53;;
6862;SDS011;3470;48.738;9.616;2024-03-29T19:24:31;5.00;;;2.20;;
6862;SDS011;3470;48.738;9.616;2024-03-29T19:26:56;2.97;;;1.93;;
6862;SDS011;3470;48.738;9.616;2024-03-29T19:29:22;2.57;;;1.93;;
6862;SDS011;3470;48.738;9.616;2024-03-29T19:31:48;3.17;;;2.50;;
6862;SDS011;3470;48.738;9.616;2024-03-29T19:34:14;2.73;;;2.47;;
6862;SDS011;3470;48.738;9.616;2024-03-29T19:36:40;3.03;;;2.30;;
6862;SDS011;3470;48.738;9.616;2024-03-29T19:39:06;3.93;;;2.40;;
6862;SDS011;3470;48.738;9.616;2024-03-29T19:41:35;3.70;;;2.20;;
6862;SDS011;3470;48.738;9.616;2024-03-29T19:44:01;3.23;;;2.20;;
6862;SDS011;3470;48.738;9.616;2024-03-29T19:46:28;3.73;;;2.47;;
6862;SDS011;3470;48.738;9.616;2024-03-29T19:48:56;5.10;;;2.73;;
6862;SDS011;3470;48.738;9.616;2024-03-29T19:51:22;3.53;;;2.37;;
6862;SDS011;3470;48.738;9.616;2024-03-29T19:53:47;6.73;;;3.93;;
6862;SDS011;3470;48.738;9.616;2024-03-29T19:56:14;3.83;;;2.93;;
6862;SDS011;3470;48.738;9.616;2024-03-29T19:58:40;2.53;;;2.10;;
6862;SDS011;3470;48.738;9.616;2024-03-29T20:01:07;2.80;;;2.33;;
6862;SDS011;3470;48.738;9.616;2024-03-29T20:03:33;2.90;;;2.27;;
6862;SDS011;3470;48.738;9.616;2024-03-29T20:05:59;5.23;;;2.67;;
6862;SDS011;3470;48.738;9.616;2024-03-29T20:08:24;4.43;;;2.70;;
6862;SDS011;3470;48.738;9.616;2024-03-29T20:10:50;4.23;;;3.13;;
6862;SDS011;3470;48.738;9.616;2024-03-29T20:13:16;5.90;;;2.67;;
6862;SDS011;3470;48.738;9.616;2024-03-29T20:15:43;5.27;;;2.70;;
6862;SDS011;3470;48.738;9.616;2024-03-29T20:18:10;4.67;;;2.80;;
6862;SDS011;3470;48.738;9.616;2024-03-29T20:20:45;7.50;;;4.13;;
6862;SDS011;3470;48.738;9.616;2024-03-29T20:23:14;6.40;;;2.97;;
6862;SDS011;3470;48.738;9.616;2024-03-29T20:25:40;11.77;;;3.43;;
6862;SDS011;3470;48.738;9.616;2024-03-29T20:28:13;13.03;;;3.20;;
6862;SDS011;3470;48.738;9.616;2024-03-29T20:30:39;13.67;;;4.33;;
6862;SDS011;3470;48.738;9.616;2024-03-29T20:33:05;18.77;;;3.83;;
6862;SDS011;3470;48.738;9.616;2024-03-29T20:35:31;12.37;;;4.30;;
6862;SDS011;3470;48.738;9.616;2024-03-29T20:38:04;13.13;;;5.83;;
6862;SDS011;3470;48.738;9.616;2024-03-29T20:40:30;15.40;;;4.53;;
6862;SDS011;3470;48.738;9.616;2024-03-29T20:42:56;18.57;;;3.50;;
6862;SDS011;3470;48.738;9.616;2024-03-29T20:45:21;27.50;;;9.47;;
6862;SDS011;3470;48.738;9.616;2024-03-29T20:47:47;19.10;;;7.50;;
6862;SDS011;3470;48.738;9.616;2024-03-29T20:50:12;16.07;;;4.50;;
6862;SDS011;3470;48.738;9.616;2024-03-29T20:52:38;22.27;;;6.20;;
6862;SDS011;3470;48.738;9.616;2024-03-29T20:55:04;34.00;;;9.80;;
6862;SDS011;3470;48.738;9.616;2024-03-29T20:57:31;40.60;;;11.47;;
6862;SDS011;3470;48.738;9.616;2024-03-29T20:59:57;41.60;;;13.00;;
6862;SDS011;3470;48.738;9.616;2024-03-29T21:02:24;33.77;;;9.83;;
6862;SDS011;3470;48.738;9.616;2024-03-29T21:05:08;38.87;;;9.50;;
6862;SDS011;3470;48.738;9.616;2024-03-29T21:07:52;36.00;;;8.83;;
6862;SDS011;3470;48.738;9.616;2024-03-29T21:10:18;31.17;;;6.40;;
6862;SDS011;3470;48.738;9.616;2024-03-29T21:12:44;38.97;;;8.67;;
6862;SDS011;3470;48.738;9.616;2024-03-29T21:15:09;32.57;;;7.13;;
6862;SDS011;3470;48.738;9.616;2024-03-29T21:17:35;33.20;;;7.90;;
6862;SDS011;3470;48.738;9.616;2024-03-29T21:20:04;43.27;;;7.87;;
6862;SDS011;3470;48.738;9.616;2024-03-29T21:22:34;49.50;;;8.50;;
6862;SDS011;3470;48.738;9.616;2024-03-29T21:25:02;51.77;;;10.50;;
6862;SDS011;3470;48.738;9.616;2024-03-29T21:27:31;54.37;;;12.57;;
6862;SDS011;3470;48.738;9.616;2024-03-29T21:29:57;79.87;;;14.93;;
6862;SDS011;3470;48.738;9.616;2024-03-29T21:32:23;56.27;;;12.93;;
6862;SDS011;3470;48.738;9.616;2024-03-29T21:34:49;63.38;;;13.57;;
6862;SDS011;3470;48.738;9.616;2024-03-29T21:37:14;58.20;;;13.23;;
6862;SDS011;3470;48.738;9.616;2024-03-29T21:39:40;70.88;;;14.13;;
6862;SDS011;3470;48.738;9.616;2024-03-29T21:42:05;71.93;;;15.15;;
6862;SDS011;3470;48.738;9.616;2024-03-29T21:44:32;82.28;;;15.90;;
6862;SDS011;3470;48.738;9.616;2024-03-29T21:47:00;89.57;;;16.17;;
6862;SDS011;3470;48.738;9.616;2024-03-29T21:49:26;83.30;;;18.05;;
6862;SDS011;3470;48.738;9.616;2024-03-29T21:51:51;84.78;;;18.70;;
6862;SDS011;3470;48.738;9.616;2024-03-29T21:54:17;91.38;;;19.27;;
6862;SDS011;3470;48.738;9.616;2024-03-29T21:56:43;93.70;;;17.80;;
6862;SDS011;3470;48.738;9.616;2024-03-29T21:59:08;92.43;;;19.00;;
6862;SDS011;3470;48.738;9.616;2024-03-29T22:01:34;97.85;;;20.10;;
6862;SDS011;3470;48.738;9.616;2024-03-29T22:04:00;98.35;;;17.75;;
6862;SDS011;3470;48.738;9.616;2024-03-29T22:06:25;91.72;;;20.45;;
6862;SDS011;3470;48.738;9.616;2024-03-29T22:08:51;99.22;;;20.00;;
6862;SDS011;3470;48.738;9.616;2024-03-29T22:11:16;82.40;;;20.13;;
6862;SDS011;3470;48.738;9.616;2024-03-29T22:13:42;89.95;;;19.92;;
6862;SDS011;3470;48.738;9.616;2024-03-29T22:16:08;93.15;;;19.00;;
6862;SDS011;3470;48.738;9.616;2024-03-29T22:18:35;105.65;;;19.75;;
6862;SDS011;3470;48.738;9.616;2024-03-29T22:21:01;93.13;;;19.92;;
6862;SDS011;3470;48.738;9.616;2024-03-29T22:23:26;99.30;;;20.40;;
6862;SDS011;3470;48.738;9.616;2024-03-29T22:25:52;96.93;;;21.40;;
6862;SDS011;3470;48.738;9.616;2024-03-29T22:28:18;85.90;;;17.75;;
6862;SDS011;3470;48.738;9.616;2024-03-29T22:30:43;96.60;;;20.70;;
6862;SDS011;3470;48.738;9.616;2024-03-29T22:33:09;104.00;;;19.58;;
6862;SDS011;3470;48.738;9.616;2024-03-29T22:35:34;89.78;;;18.27;;
6862;SDS011;3470;48.738;9.616;2024-03-29T22:38:00;91.95;;;20.23;;
6862;SDS011;3470;48.738;9.616;2024-03-29T22:40:25;107.15;;;19.90;;
6862;SDS011;3470;48.738;9.616;2024-03-29T22:42:52;86.45;;;18.95;;
6862;SDS011;3470;48.738;9.616;2024-03-29T22:45:17;85.13;;;19.75;;
6862;SDS011;3470;48.738;9.616;2024-03-29T22:47:43;86.57;;;18.33;;
6862;SDS011;3470;48.738;9.616;2024-03-29T22:50:09;94.60;;;21.52;;
6862;SDS011;3470;48.738;9.616;2024-03-29T22:52:34;95.07;;;19.83;;
6862;SDS011;3470;48.738;9.616;2024-03-29T22:55:00;86.05;;;17.13;;
6862;SDS011;3470;48.738;9.616;2024-03-29T22:57:25;108.68;;;18.48;;
6862;SDS011;3470;48.738;9.616;2024-03-29T22:59:51;88.90;;;17.55;;
6862;SDS011;3470;48.738;9.616;2024-03-29T23:02:17;80.85;;;18.23;;
6862;SDS011;3470;48.738;9.616;2024-03-29T23:04:42;94.10;;;18.98;;
6862;SDS011;3470;48.738;9.616;2024-03-29T23:07:08;99.60;;;19.70;;
6862;SDS011;3470;48.738;9.616;2024-03-29T23:09:37;93.85;;;18.27;;
6862;SDS011;3470;48.738;9.616;2024-03-29T23:12:02;103.25;;;20.08;;
6862;SDS011;3470;48.738;9.616;2024-03-29T23:14:28;78.13;;;16.90;;
6862;SDS011;3470;48.738;9.616;2024-03-29T23:16:54;88.72;;;17.58;;
6862;SDS011;3470;48.738;9.616;2024-03-29T23:19:19;88.13;;;17.40;;
6862;SDS011;3470;48.738;9.616;2024-03-29T23:21:45;89.50;;;18.35;;
6862;SDS011;3470;48.738;9.616;2024-03-29T23:24:11;85.70;;;16.17;;
6862;SDS011;3470;48.738;9.616;2024-03-29T23:26:38;73.25;;;17.20;;
6862;SDS011;3470;48.738;9.616;2024-03-29T23:29:05;81.82;;;16.00;;
6862;SDS011;3470;48.738;9.616;2024-03-29T23:31:34;89.10;;;17.27;;
6862;SDS011;3470;48.738;9.616;2024-03-29T23:34:00;75.97;;;16.70;;
6862;SDS011;3470;48.738;9.616;2024-03-29T23:36:25;78.30;;;14.82;;
6862;SDS011;3470;48.738;9.616;2024-03-29T23:38:51;82.38;;;16.58;;
6862;SDS011;3470;48.738;9.616;2024-03-29T23:41:17;77.93;;;16.20;;
6862;SDS011;3470;48.738;9.616;2024-03-29T23:43:42;80.93;;;15.90;;
6862;SDS011;3470;48.738;9.616;2024-03-29T23:46:08;68.93;;;15.65;;
6862;SDS011;3470;48.738;9.616;2024-03-29T23:48:34;54.67;;;13.18;;
6862;SDS011;3470;48.738;9.616;2024-03-29T23:51:00;78.80;;;14.82;;
6862;SDS011;3470;48.738;9.616;2024-03-29T23:53:29;65.32;;;14.82;;
6862;SDS011;3470;48.738;9.616;2024-03-29T23:55:56;61.80;;;14.05;;
6862;SDS011;3470;48.738;9.616;2024-03-29T23:58:23;71.10;;;13.13;;
